createdAt,value
2018-06-19T00:01:19.091Z,93.20
2018-06-19T00:03:47.695Z,93.10
2018-06-19T00:06:16.295Z,93.00
2018-06-19T00:08:44.771Z,92.80
2018-06-19T00:11:13.358Z,92.80
2018-06-19T00:13:42.041Z,92.70
2018-06-19T00:16:10.637Z,92.90
2018-06-19T00:18:50.477Z,93.10
2018-06-19T00:21:27.057Z,93.00
2018-06-19T00:23:55.627Z,93.20
2018-06-19T00:26:24.385Z,93.40
2018-06-19T00:28:52.819Z,93.40
2018-06-19T00:31:21.375Z,93.60
2018-06-19T00:33:49.782Z,93.60
2018-06-19T00:36:18.186Z,93.50
2018-06-19T00:38:46.601Z,93.30
2018-06-19T00:41:15.053Z,93.40
2018-06-19T00:43:43.463Z,93.60
2018-06-19T00:46:12.252Z,93.70
2018-06-19T00:48:40.719Z,93.80
2018-06-19T00:51:09.203Z,93.70
2018-06-19T00:53:37.887Z,93.60
2018-06-19T00:56:17.706Z,93.50
2018-06-19T00:58:46.335Z,93.40
2018-06-19T01:01:14.967Z,93.50
2018-06-19T01:03:43.412Z,93.60
2018-06-19T01:06:11.965Z,93.30
2018-06-19T01:08:40.447Z,93.40
2018-06-19T01:11:08.932Z,93.60
2018-06-19T01:13:37.636Z,93.80
2018-06-19T01:16:06.508Z,94.00
2018-06-19T01:18:34.929Z,94.00
2018-06-19T01:21:03.486Z,93.80
2018-06-19T01:23:31.958Z,93.70
2018-06-19T01:26:00.475Z,93.70
2018-06-19T01:28:29.002Z,93.60
2018-06-19T01:30:57.468Z,93.50
2018-06-19T01:33:25.887Z,93.60
2018-06-19T01:35:54.432Z,93.80
2018-06-19T01:38:23.976Z,93.80
2018-06-19T01:40:52.603Z,93.80
2018-06-19T01:43:21.190Z,94.00
2018-06-19T01:45:49.575Z,94.10
2018-06-19T01:48:18.133Z,94.10
2018-06-19T01:50:46.627Z,94.00
2018-06-19T01:53:15.056Z,94.00
2018-06-19T01:55:43.580Z,94.00
2018-06-19T01:58:11.978Z,94.20
2018-06-19T02:00:40.655Z,94.20
2018-06-19T02:03:09.152Z,94.10
2018-06-19T02:05:37.612Z,94.00
2018-06-19T02:08:06.067Z,94.50
2018-06-19T02:10:34.481Z,94.90
2018-06-19T02:13:02.918Z,95.10
2018-06-19T02:15:31.412Z,94.70
2018-06-19T02:17:59.839Z,94.40
2018-06-19T02:20:28.231Z,94.30
2018-06-19T02:22:56.864Z,94.20
2018-06-19T02:25:25.455Z,94.50
2018-06-19T02:27:53.936Z,94.50
2018-06-19T02:30:22.355Z,94.60
2018-06-19T02:32:50.768Z,94.40
2018-06-19T02:35:19.577Z,94.30
2018-06-19T02:37:48.290Z,93.90
2018-06-19T02:40:16.878Z,94.10
2018-06-19T02:42:45.416Z,94.30
2018-06-19T02:45:13.830Z,94.00
2018-06-19T02:47:42.327Z,94.00
2018-06-19T02:50:10.948Z,94.00
2018-06-19T02:52:39.467Z,94.50
2018-06-19T02:55:08.073Z,93.70
2018-06-19T02:57:36.572Z,93.50
2018-06-19T03:00:05.760Z,93.60
2018-06-19T03:02:34.277Z,94.10
2018-06-19T03:05:02.779Z,94.20
2018-06-19T03:07:31.389Z,93.90
2018-06-19T03:10:00.118Z,93.80
2018-06-19T03:12:28.621Z,94.20
2018-06-19T03:14:57.097Z,94.50
2018-06-19T03:17:25.911Z,94.60
2018-06-19T03:19:54.432Z,94.90
2018-06-19T03:22:23.057Z,95.30
2018-06-19T03:24:51.578Z,95.30
2018-06-19T03:27:20.759Z,95.20
2018-06-19T03:29:49.279Z,95.00
2018-06-19T03:32:18.013Z,94.80
2018-06-19T03:34:46.528Z,94.50
2018-06-19T03:37:15.133Z,94.80
2018-06-19T03:39:43.560Z,94.50
2018-06-19T03:42:11.951Z,94.70
2018-06-19T03:44:40.507Z,94.80
2018-06-19T03:47:08.980Z,95.00
2018-06-19T03:49:37.477Z,94.60
2018-06-19T03:52:06.152Z,94.40
2018-06-19T03:54:34.601Z,94.70
2018-06-19T03:57:03.052Z,94.90
2018-06-19T03:59:31.466Z,95.00
2018-06-19T04:02:00.057Z,95.00
2018-06-19T04:04:28.514Z,94.30
2018-06-19T04:06:56.948Z,94.30
2018-06-19T04:09:25.477Z,94.40
2018-06-19T04:11:53.981Z,94.50
2018-06-19T04:14:22.411Z,94.50
2018-06-19T04:19:18.924Z,94.70
2018-06-19T04:21:47.519Z,94.80
2018-06-19T04:26:44.927Z,95.30
2018-06-19T04:29:13.420Z,95.10
2018-06-19T04:31:41.855Z,95.20
2018-06-19T04:34:10.332Z,94.90
2018-06-19T04:36:38.921Z,94.70
2018-06-19T04:39:09.959Z,94.70
2018-06-19T04:41:44.643Z,94.80
2018-06-19T04:44:13.127Z,94.80
2018-06-19T04:46:41.785Z,94.60
2018-06-19T04:49:10.493Z,94.70
2018-06-19T04:51:39.075Z,95.10
2018-06-19T04:54:07.498Z,94.70
2018-06-19T04:56:36.085Z,94.70
2018-06-19T04:59:04.533Z,94.40
2018-06-19T05:01:33.084Z,94.60
2018-06-19T05:04:01.475Z,94.60
2018-06-19T05:06:29.903Z,94.50
2018-06-19T05:08:58.295Z,94.40
2018-06-19T05:11:26.781Z,94.40
2018-06-19T05:13:55.216Z,93.90
2018-06-19T05:16:23.852Z,93.20
2018-06-19T05:18:52.332Z,92.70
2018-06-19T05:21:20.847Z,92.30
2018-06-19T05:23:49.412Z,92.10
2018-06-19T05:26:17.860Z,91.90
2018-06-19T05:28:46.349Z,91.60
2018-06-19T05:31:14.960Z,91.50
2018-06-19T05:33:43.667Z,91.50
2018-06-19T05:36:12.347Z,91.00
2018-06-19T05:38:40.800Z,90.80
2018-06-19T05:41:09.236Z,90.70
2018-06-19T05:43:37.722Z,90.30
2018-06-19T05:46:06.282Z,90.30
2018-06-19T05:48:34.812Z,90.00
2018-06-19T05:51:03.252Z,90.10
2018-06-19T05:53:31.828Z,90.20
2018-06-19T05:56:00.406Z,90.50
2018-06-19T05:58:28.952Z,90.30
2018-06-19T06:00:57.371Z,90.60
2018-06-19T06:03:25.920Z,90.50
2018-06-19T06:05:54.411Z,90.30
2018-06-19T06:08:22.772Z,88.60
2018-06-19T06:10:51.172Z,86.80
2018-06-19T06:13:20.166Z,87.70
2018-06-19T06:15:48.599Z,87.50
2018-06-19T06:18:17.188Z,87.30
2018-06-19T06:20:45.903Z,87.90
2018-06-19T06:23:14.572Z,87.30
2018-06-19T06:25:43.252Z,87.80
2018-06-19T06:28:11.741Z,88.40
2018-06-19T06:30:40.183Z,88.50
2018-06-19T06:33:08.695Z,88.30
2018-06-19T06:35:37.220Z,88.10
2018-06-19T06:38:05.879Z,86.40
2018-06-19T06:40:34.519Z,85.20
2018-06-19T06:43:03.112Z,85.20
2018-06-19T06:45:31.557Z,84.20
2018-06-19T06:47:59.976Z,83.00
2018-06-19T06:50:28.628Z,83.30
2018-06-19T06:52:57.089Z,82.90
2018-06-19T06:55:25.606Z,81.90
2018-06-19T06:57:54.178Z,81.60
2018-06-19T07:00:22.598Z,80.10
2018-06-19T07:02:51.174Z,78.70
2018-06-19T07:05:19.600Z,78.20
2018-06-19T07:07:48.153Z,77.10
2018-06-19T07:12:44.704Z,75.00
2018-06-19T07:15:13.154Z,74.40
2018-06-19T07:17:41.683Z,74.70
2018-06-19T07:20:10.605Z,74.80
2018-06-19T07:22:38.879Z,74.50
2018-06-19T07:25:07.395Z,74.40
2018-06-19T07:27:35.797Z,73.90
2018-06-19T07:30:04.480Z,74.00
2018-06-19T07:32:33.019Z,73.10
2018-06-19T07:35:01.571Z,71.70
2018-06-19T07:37:29.981Z,72.50
2018-06-19T07:39:58.441Z,71.80
2018-06-19T07:42:27.092Z,71.20
2018-06-19T07:44:55.536Z,72.80
2018-06-19T07:47:24.096Z,71.80
2018-06-19T07:49:52.548Z,71.00
2018-06-19T07:52:21.052Z,70.60
2018-06-19T07:54:49.504Z,70.80
2018-06-19T07:57:18.104Z,70.00
2018-06-19T07:59:46.480Z,70.80
2018-06-19T08:02:14.934Z,70.70
2018-06-19T08:04:43.858Z,70.70
2018-06-19T08:07:12.312Z,70.80
2018-06-19T08:09:41.152Z,70.40
2018-06-19T08:12:09.917Z,68.40
2018-06-19T08:14:38.384Z,67.50
2018-06-19T08:17:07.037Z,66.90
2018-06-19T08:19:35.488Z,67.90
2018-06-19T08:22:04.159Z,68.20
2018-06-19T08:24:32.660Z,68.60
2018-06-19T08:27:01.422Z,68.10
2018-06-19T08:29:29.940Z,68.10
2018-06-19T08:31:58.446Z,67.10
2018-06-19T08:34:26.947Z,65.70
2018-06-19T08:36:55.469Z,66.30
2018-06-19T08:39:23.900Z,66.90
2018-06-19T08:41:52.606Z,66.10
2018-06-19T08:44:20.951Z,68.00
2018-06-19T08:46:49.664Z,67.40
2018-06-19T08:49:18.190Z,68.00
2018-06-19T08:51:46.776Z,65.70
2018-06-19T08:54:15.260Z,65.10
2018-06-19T08:56:43.802Z,64.50
2018-06-19T08:59:12.233Z,63.90
2018-06-19T09:01:40.642Z,64.00
2018-06-19T09:04:09.257Z,63.40
2018-06-19T09:06:37.791Z,62.80
2018-06-19T09:09:08.638Z,62.30
2018-06-19T09:11:37.083Z,63.20
2018-06-19T09:14:05.908Z,61.30
2018-06-19T09:16:34.449Z,61.30
2018-06-19T09:19:02.928Z,60.50
2018-06-19T09:21:31.485Z,60.00
2018-06-19T09:24:00.035Z,60.40
2018-06-19T09:26:28.540Z,58.70
2018-06-19T09:28:57.172Z,58.50
2018-06-19T09:31:25.796Z,57.40
2018-06-19T09:36:22.736Z,56.90
2018-06-19T09:38:51.176Z,55.60
2018-06-19T09:41:19.591Z,55.80
2018-06-19T09:43:48.323Z,55.70
2018-06-19T09:46:17.027Z,56.40
2018-06-19T09:48:45.473Z,55.20
2018-06-19T09:51:14.239Z,56.70
2018-06-19T09:53:42.948Z,56.90
2018-06-19T09:56:11.716Z,58.90
2018-06-19T10:03:37.019Z,56.90
2018-06-19T10:06:05.657Z,57.40
2018-06-19T10:08:34.161Z,57.90
2018-06-19T10:11:02.787Z,58.20
2018-06-19T10:13:31.684Z,58.40
2018-06-19T10:16:00.244Z,56.90
2018-06-19T10:18:29.240Z,59.30
2018-06-19T10:20:57.824Z,57.80
2018-06-19T10:23:26.519Z,57.90
2018-06-19T10:25:54.995Z,58.20
2018-06-19T10:28:23.761Z,58.00
2018-06-19T10:30:52.505Z,56.60
2018-06-19T10:33:20.964Z,57.50
2018-06-19T10:35:49.425Z,55.30
2018-06-19T10:38:17.878Z,55.30
2018-06-19T10:40:46.327Z,55.40
2018-06-19T10:43:14.766Z,54.80
2018-06-19T10:45:43.227Z,55.60
2018-06-19T10:48:11.700Z,56.90
2018-06-19T10:50:40.276Z,55.40
2018-06-19T10:53:09.030Z,57.00
2018-06-19T10:55:37.637Z,57.30
2018-06-19T10:58:06.354Z,54.40
2018-06-19T11:00:35.019Z,53.40
2018-06-19T11:03:03.529Z,53.70
2018-06-19T11:05:32.084Z,53.00
2018-06-19T11:08:00.705Z,52.90
2018-06-19T11:10:29.143Z,52.90
2018-06-19T11:12:57.621Z,52.90
2018-06-19T11:15:26.183Z,52.90
2018-06-19T11:17:54.701Z,52.00
2018-06-19T11:20:23.338Z,51.00
2018-06-19T11:22:51.817Z,47.90
2018-06-19T11:25:21.095Z,48.00
2018-06-19T11:27:49.606Z,47.70
2018-06-19T11:30:18.101Z,49.10
2018-06-19T11:32:46.601Z,52.20
2018-06-19T11:35:15.053Z,52.70
2018-06-19T11:37:43.540Z,53.70
2018-06-19T11:40:11.999Z,54.80
2018-06-19T11:42:40.458Z,52.20
2018-06-19T11:45:08.911Z,51.70
2018-06-19T11:47:37.691Z,50.70
2018-06-19T11:50:06.294Z,48.50
2018-06-19T11:52:35.331Z,47.50
2018-06-19T11:55:03.828Z,49.20
2018-06-19T11:57:32.719Z,50.50
2018-06-19T12:00:01.225Z,50.50
2018-06-19T12:02:29.768Z,49.90
2018-06-19T12:04:58.327Z,48.80
2018-06-19T12:07:31.340Z,47.30
2018-06-19T12:09:59.812Z,48.60
2018-06-19T12:12:28.303Z,45.20
2018-06-19T12:14:56.756Z,44.80
2018-06-19T12:17:25.214Z,44.00
2018-06-19T12:19:53.854Z,43.80
2018-06-19T12:22:22.276Z,44.30
2018-06-19T12:24:50.815Z,43.90
2018-06-19T12:27:19.529Z,44.70
2018-06-19T12:29:49.115Z,45.60
2018-06-19T12:32:17.596Z,44.70
2018-06-19T12:34:45.999Z,45.50
2018-06-19T12:37:14.796Z,44.90
2018-06-19T12:39:43.413Z,43.20
2018-06-19T12:42:11.920Z,44.20
2018-06-19T12:44:40.368Z,41.30
2018-06-19T12:47:08.937Z,41.80
2018-06-19T12:49:48.607Z,40.80
2018-06-19T12:52:28.304Z,42.00
2018-06-19T12:55:09.149Z,41.10
2018-06-19T12:57:37.596Z,42.40
2018-06-19T13:00:06.253Z,42.80
2018-06-19T13:02:34.740Z,42.00
2018-06-19T13:05:14.588Z,42.80
2018-06-19T13:07:43.507Z,42.40
2018-06-19T13:10:13.420Z,41.80
2018-06-19T13:13:21.130Z,40.80
2018-06-19T13:15:51.046Z,40.40
2018-06-19T13:18:31.595Z,41.00
2018-06-19T13:21:00.290Z,40.70
2018-06-19T13:23:29.173Z,39.20
2018-06-19T13:25:57.752Z,42.30
2018-06-19T13:28:37.894Z,43.20
2018-06-19T13:31:17.683Z,39.60
2018-06-19T13:33:46.151Z,39.70
2018-06-19T13:36:14.830Z,40.70
2018-06-19T13:38:43.429Z,38.20
2018-06-19T13:41:24.560Z,36.80
2018-06-19T13:44:06.064Z,38.30
2018-06-19T13:46:34.717Z,38.90
2018-06-19T13:49:03.180Z,38.90
2018-06-19T13:51:31.756Z,37.80
2018-06-19T13:54:00.266Z,36.80
2018-06-19T13:57:43.106Z,35.60
2018-06-19T14:00:14.662Z,34.60
2018-06-19T14:02:43.180Z,35.80
2018-06-19T14:05:12.439Z,33.80
2018-06-19T14:07:58.568Z,31.50
2018-06-19T14:10:38.303Z,30.30
2018-06-19T14:13:06.727Z,30.50
2018-06-19T14:15:41.283Z,28.70
2018-06-19T14:18:09.936Z,28.10
2018-06-19T14:20:39.173Z,29.00
2018-06-19T14:23:07.927Z,33.40
2018-06-19T14:25:36.541Z,39.00
2018-06-19T14:28:05.164Z,39.20
2018-06-19T14:30:33.620Z,42.00
2018-06-19T14:33:02.206Z,43.90
2018-06-19T14:35:30.903Z,45.00
2018-06-19T14:37:59.354Z,45.10
2018-06-19T14:40:27.804Z,46.20
2018-06-19T14:42:56.274Z,46.90
2018-06-19T14:45:24.882Z,46.90
2018-06-19T14:47:53.395Z,45.10
2018-06-19T14:50:21.839Z,41.80
2018-06-19T14:52:50.383Z,40.80
2018-06-19T14:55:18.997Z,40.40
2018-06-19T14:57:47.744Z,39.30
2018-06-19T15:00:16.382Z,42.40
2018-06-19T15:02:45.033Z,43.90
2018-06-19T15:05:13.588Z,44.80
2018-06-19T15:07:47.210Z,41.70
2018-06-19T15:10:16.306Z,37.50
2018-06-19T15:12:45.024Z,34.60
2018-06-19T15:15:13.782Z,30.50
2018-06-19T15:17:42.372Z,30.70
2018-06-19T15:20:10.937Z,30.30
2018-06-19T15:22:39.411Z,31.20
2018-06-19T15:25:08.277Z,31.50
2018-06-19T15:27:37.641Z,31.30
2018-06-19T15:32:34.396Z,32.80
2018-06-19T15:35:02.939Z,33.90
2018-06-19T15:37:31.518Z,33.90
2018-06-19T15:40:00.188Z,34.00
2018-06-19T15:42:28.792Z,34.60
2018-06-19T15:44:57.296Z,34.00
2018-06-19T15:47:26.072Z,34.20
2018-06-19T15:49:54.532Z,33.80
2018-06-19T15:52:23.104Z,33.00
2018-06-19T15:54:51.678Z,32.00
2018-06-19T15:57:20.235Z,33.40
2018-06-19T15:59:48.983Z,36.20
2018-06-19T16:02:17.483Z,38.10
2018-06-19T16:04:46.043Z,40.80
2018-06-19T16:07:14.700Z,43.40
2018-06-19T16:09:43.187Z,46.00
2018-06-19T16:12:11.863Z,47.70
2018-06-19T16:14:40.658Z,48.70
2018-06-19T16:17:09.218Z,50.00
2018-06-19T16:19:37.682Z,48.00
2018-06-19T16:22:06.579Z,47.40
2018-06-19T16:24:35.429Z,46.50
2018-06-19T16:27:04.126Z,48.30
2018-06-19T16:32:01.247Z,47.50
2018-06-19T16:34:29.716Z,47.60
2018-06-19T16:36:58.195Z,47.90
2018-06-19T16:39:26.901Z,48.00
2018-06-19T16:41:55.529Z,44.20
2018-06-19T16:44:24.053Z,43.60
2018-06-19T16:46:52.595Z,44.00
2018-06-19T16:49:21.250Z,43.60
2018-06-19T16:51:49.861Z,40.70
2018-06-19T16:54:18.360Z,40.30
2018-06-19T16:56:46.880Z,39.10
2018-06-19T16:59:15.462Z,39.00
2018-06-19T17:01:44.003Z,36.60
2018-06-19T17:04:12.755Z,35.60
2018-06-19T17:06:41.328Z,35.80
2018-06-19T17:09:09.938Z,35.80
2018-06-19T17:11:38.720Z,36.00
2018-06-19T17:14:07.246Z,36.40
2018-06-19T17:16:35.832Z,36.80
2018-06-19T17:19:05.379Z,39.60
2018-06-19T17:21:34.545Z,42.20
2018-06-19T17:24:03.046Z,42.50
2018-06-19T17:26:31.576Z,42.90
2018-06-19T17:29:00.098Z,41.10
2018-06-19T17:31:28.649Z,40.70
2018-06-19T17:33:57.400Z,39.40
2018-06-19T17:36:26.160Z,40.90
2018-06-19T17:38:54.674Z,40.40
2018-06-19T17:41:23.166Z,39.40
2018-06-19T17:43:51.745Z,40.80
2018-06-19T17:46:20.756Z,42.00
2018-06-19T17:48:49.319Z,43.20
2018-06-19T17:51:17.873Z,42.80
2018-06-19T17:53:46.429Z,41.90
2018-06-19T17:56:15.030Z,43.40
2018-06-19T17:58:43.500Z,44.00
2018-06-19T18:03:40.564Z,46.10
2018-06-19T18:06:09.124Z,45.60
2018-06-19T18:08:37.846Z,46.40
2018-06-19T18:11:06.319Z,48.20
2018-06-19T18:13:34.948Z,50.60
2018-06-19T18:16:03.493Z,53.00
2018-06-19T18:21:00.503Z,55.00
2018-06-19T18:23:29.386Z,55.40
2018-06-19T18:25:57.990Z,56.40
2018-06-19T18:28:26.543Z,57.70
2018-06-19T18:30:55.060Z,57.90
2018-06-19T18:33:23.675Z,59.30
2018-06-19T18:35:52.292Z,61.90
2018-06-19T18:38:21.108Z,63.40
2018-06-19T18:40:49.786Z,64.90
2018-06-19T18:43:18.377Z,66.30
2018-06-19T18:45:47.838Z,67.30
2018-06-19T18:48:16.880Z,68.80
2018-06-19T18:50:45.423Z,69.80
2018-06-19T18:53:14.141Z,70.50
2018-06-19T18:55:43.572Z,71.30
2018-06-19T18:58:12.727Z,73.20
2018-06-19T19:00:41.322Z,73.90
2018-06-19T19:03:10.184Z,74.90
2018-06-19T19:05:38.742Z,75.80
2018-06-19T19:08:09.671Z,77.00
2018-06-19T19:10:43.627Z,78.00
2018-06-19T19:13:12.122Z,78.40
2018-06-19T19:15:46.014Z,79.00
2018-06-19T19:18:20.068Z,79.90
2018-06-19T19:20:48.686Z,80.90
2018-06-19T19:23:17.189Z,80.50
2018-06-19T19:25:45.646Z,80.90
2018-06-19T19:28:19.428Z,81.30
2018-06-19T19:30:48.134Z,81.70
2018-06-19T19:33:16.833Z,82.20
2018-06-19T19:35:45.507Z,82.70
2018-06-19T19:38:19.806Z,83.10
2018-06-19T19:40:48.572Z,83.30
2018-06-19T19:43:17.167Z,84.00
2018-06-19T19:45:45.705Z,83.90
2018-06-19T19:48:19.628Z,84.40
2018-06-19T19:50:48.547Z,84.90
2018-06-19T19:53:17.497Z,85.80
2018-06-19T19:55:51.384Z,85.90
2018-06-19T19:58:56.978Z,86.30
2018-06-19T20:01:25.505Z,86.90
2018-06-19T20:03:54.135Z,86.80
2018-06-19T20:06:22.624Z,87.20
2018-06-19T20:08:51.192Z,87.30
2018-06-19T20:11:19.729Z,87.40
2018-06-19T20:13:48.541Z,88.20
2018-06-19T20:16:17.217Z,88.30
2018-06-19T20:18:45.823Z,89.30
2018-06-19T20:21:14.739Z,89.20
2018-06-19T20:23:43.839Z,89.40
2018-06-19T20:26:12.671Z,89.50
2018-06-19T20:28:41.385Z,89.50
2018-06-19T20:33:31.259Z,89.80
2018-06-19T20:35:59.939Z,89.60
2018-06-19T20:38:28.789Z,90.00
2018-06-19T20:40:57.536Z,90.00
2018-06-19T20:43:26.015Z,90.00
2018-06-19T20:45:54.491Z,90.00
2018-06-19T20:48:23.156Z,90.20
2018-06-19T20:50:51.900Z,90.30
2018-06-19T20:53:20.751Z,90.10
2018-06-19T20:58:18.037Z,90.80
2018-06-19T21:00:46.520Z,90.70
2018-06-19T21:03:15.059Z,90.70
2018-06-19T21:05:43.597Z,90.90
2018-06-19T21:08:12.918Z,91.10
2018-06-19T21:10:41.411Z,91.20
2018-06-19T21:13:09.907Z,91.20
2018-06-19T21:15:38.449Z,91.50
2018-06-19T21:18:07.070Z,91.20
2018-06-19T21:20:35.620Z,91.50
2018-06-19T21:23:04.664Z,91.60
2018-06-19T21:25:33.305Z,91.50
2018-06-19T21:28:01.803Z,91.70
2018-06-19T21:30:30.227Z,92.00
2018-06-19T21:32:58.707Z,91.90
2018-06-19T21:35:27.411Z,92.00
2018-06-19T21:37:56.036Z,92.10
2018-06-19T21:40:24.695Z,92.30
2018-06-19T21:42:53.135Z,92.20
2018-06-19T21:45:21.600Z,92.40
2018-06-19T21:47:50.032Z,92.40
2018-06-19T21:50:18.462Z,92.30
2018-06-19T21:52:47.004Z,92.30
2018-06-19T21:55:15.526Z,92.20
2018-06-19T21:57:44.000Z,92.00
2018-06-19T22:00:13.104Z,92.20
2018-06-19T22:02:41.897Z,92.40
2018-06-19T22:05:10.604Z,92.30
2018-06-19T22:07:39.172Z,92.50
2018-06-19T22:10:07.695Z,92.50
2018-06-19T22:12:36.516Z,92.70
2018-06-19T22:15:05.173Z,92.90
2018-06-19T22:17:33.748Z,92.30
2018-06-19T22:20:03.250Z,92.60
2018-06-19T22:22:31.791Z,92.40
2018-06-19T22:25:01.040Z,92.40
2018-06-19T22:27:29.591Z,92.50
2018-06-19T22:29:58.058Z,92.40
2018-06-19T22:32:26.779Z,92.50
2018-06-19T22:34:55.329Z,92.40
2018-06-19T22:37:23.759Z,92.30
2018-06-19T22:39:52.207Z,92.30
2018-06-19T22:42:20.631Z,92.20
2018-06-19T22:44:49.231Z,92.60
2018-06-19T22:47:17.724Z,92.90
2018-06-19T22:49:46.211Z,93.00
2018-06-19T22:52:14.698Z,92.90
2018-06-19T22:54:43.124Z,92.90
2018-06-19T22:57:11.567Z,93.20
2018-06-19T22:59:40.445Z,93.00
2018-06-19T23:02:09.091Z,92.90
2018-06-19T23:04:37.952Z,93.00
2018-06-19T23:07:06.479Z,93.00
2018-06-19T23:09:34.918Z,93.00
2018-06-19T23:12:03.384Z,93.10
2018-06-19T23:14:31.811Z,93.10
2018-06-19T23:17:00.466Z,93.40
2018-06-19T23:19:29.039Z,93.40
2018-06-19T23:21:57.548Z,93.30
2018-06-19T23:24:26.252Z,93.20
2018-06-19T23:26:54.839Z,93.10
2018-06-19T23:29:23.575Z,92.90
2018-06-19T23:31:52.212Z,92.90
2018-06-19T23:34:20.754Z,93.00
2018-06-19T23:36:49.340Z,93.10
2018-06-19T23:39:17.799Z,93.30
2018-06-19T23:41:46.836Z,93.20
2018-06-19T23:44:15.744Z,93.50
2018-06-19T23:46:44.207Z,93.50
2018-06-19T23:49:12.696Z,93.40
2018-06-19T23:51:41.236Z,93.40
2018-06-19T23:54:09.918Z,93.50
2018-06-19T23:56:38.525Z,93.50
2018-06-19T23:59:07.112Z,93.40
